Time;durP1;ratioP1;P1;durP2;ratioP2;P2;SDS_P1;SDS_P2;PMS_P1;PMS_P2;Temp;Humidity;BMP_temperature;BMP_pressure;BME280_temperature;BME280_humidity;BME280_pressure;Samples;Min_cycle;Max_cycle;Signal;HPM_P1;HPM_P2
2021/07/08 00:00:20;;;;;;;12.25;6.90;;;;;;;;;;5059618;28;20226;-68
2021/07/08 00:02:46;;;;;;;16.23;8.48;;;;;;;;;;5064247;28;20460;-68
2021/07/08 00:05:14;;;;;;;12.55;7.63;;;;;;;;;;5064834;28;20118;-68
2021/07/08 00:07:41;;;;;;;12.20;7.57;;;;;;;;;;5066590;28;20094;-68
2021/07/08 00:10:08;;;;;;;11.27;7.55;;;;;;;;;;5045399;28;20926;-68
2021/07/08 00:12:35;;;;;;;13.13;8.30;;;;;;;;;;5046675;28;20199;-68
2021/07/08 00:15:01;;;;;;;17.30;9.18;;;;;;;;;;5060770;28;20059;-68
2021/07/08 00:17:27;;;;;;;13.07;8.25;;;;;;;;;;5064589;28;20044;-68
2021/07/08 00:19:54;;;;;;;15.57;8.65;;;;;;;;;;5065205;28;20048;-68
2021/07/08 00:22:20;;;;;;;11.68;8.18;;;;;;;;;;5066655;28;20128;-68
2021/07/08 00:24:46;;;;;;;9.55;7.88;;;;;;;;;;5069950;28;20131;-68
2021/07/08 00:27:12;;;;;;;14.65;7.40;;;;;;;;;;5066257;28;20473;-68
2021/07/08 00:29:38;;;;;;;15.88;8.05;;;;;;;;;;5061797;28;20037;-68
2021/07/08 00:32:05;;;;;;;15.25;8.13;;;;;;;;;;5065431;28;20052;-68
2021/07/08 00:34:31;;;;;;;13.70;8.05;;;;;;;;;;5059760;28;20390;-68
2021/07/08 00:36:57;;;;;;;15.23;8.45;;;;;;;;;;5072109;28;20037;-68
2021/07/08 00:39:23;;;;;;;13.65;8.75;;;;;;;;;;5063841;28;20066;-68
2021/07/08 00:41:49;;;;;;;13.23;8.65;;;;;;;;;;5062136;28;20088;-68
2021/07/08 00:44:16;;;;;;;12.15;8.35;;;;;;;;;;5061131;28;20057;-68
2021/07/08 00:46:42;;;;;;;10.35;8.15;;;;;;;;;;5063619;28;20068;-68
2021/07/08 00:49:08;;;;;;;15.48;8.65;;;;;;;;;;5064261;28;20071;-68
2021/07/08 00:51:34;;;;;;;13.52;8.88;;;;;;;;;;5062788;28;20040;-68
2021/07/08 00:54:01;;;;;;;18.08;9.23;;;;;;;;;;5066490;28;20051;-68
2021/07/08 00:56:34;;;;;;;13.98;8.13;;;;;;;;;;5064908;28;20112;-68
2021/07/08 00:59:04;;;;;;;18.65;9.38;;;;;;;;;;5065614;28;20040;-68
2021/07/08 01:01:32;;;;;;;14.30;9.13;;;;;;;;;;5065733;28;20393;-68
2021/07/08 01:03:59;;;;;;;18.08;10.02;;;;;;;;;;5046170;28;20442;-68
2021/07/08 01:06:26;;;;;;;12.02;9.80;;;;;;;;;;5063171;28;20047;-68
2021/07/08 01:08:53;;;;;;;15.20;9.35;;;;;;;;;;5063046;28;20740;-68
2021/07/08 01:11:19;;;;;;;11.27;9.30;;;;;;;;;;5063517;28;20056;-68
2021/07/08 01:13:45;;;;;;;16.60;10.13;;;;;;;;;;5065662;28;20055;-68
2021/07/08 01:16:11;;;;;;;15.32;10.05;;;;;;;;;;5062403;28;20067;-68
2021/07/08 01:18:39;;;;;;;11.60;8.75;;;;;;;;;;5060722;28;20048;-68
2021/07/08 01:21:31;;;;;;;13.50;8.38;;;;;;;;;;5063008;28;20059;-68
2021/07/08 01:23:59;;;;;;;12.60;8.40;;;;;;;;;;5044714;28;20036;-67
2021/07/08 01:26:26;;;;;;;16.52;9.70;;;;;;;;;;5063182;28;20053;-68
2021/07/08 01:29:02;;;;;;;13.63;9.52;;;;;;;;;;5068308;28;20068;-68
2021/07/08 01:31:28;;;;;;;12.15;9.30;;;;;;;;;;5067468;28;20036;-68
2021/07/08 01:33:55;;;;;;;18.48;8.95;;;;;;;;;;5061647;28;20452;-68
2021/07/08 01:36:21;;;;;;;16.02;9.50;;;;;;;;;;5045126;28;20055;-68
2021/07/08 01:38:47;;;;;;;12.80;9.07;;;;;;;;;;5066053;28;20726;-68
2021/07/08 01:41:14;;;;;;;12.48;8.88;;;;;;;;;;5062883;28;20040;-68
2021/07/08 01:43:41;;;;;;;13.02;8.98;;;;;;;;;;5062594;28;20102;-68
2021/07/08 01:46:08;;;;;;;16.17;8.77;;;;;;;;;;5045198;28;20627;-68
2021/07/08 01:48:35;;;;;;;16.00;8.55;;;;;;;;;;5064249;28;20076;-68
2021/07/08 01:51:03;;;;;;;16.63;9.20;;;;;;;;;;5045308;28;20122;-68
2021/07/08 01:53:29;;;;;;;17.65;9.70;;;;;;;;;;5060626;28;20056;-67
2021/07/08 01:55:57;;;;;;;16.88;9.45;;;;;;;;;;5063032;28;20040;-68
2021/07/08 01:58:24;;;;;;;18.08;10.50;;;;;;;;;;5064663;28;20059;-68
2021/07/08 02:00:51;;;;;;;18.48;10.15;;;;;;;;;;5062422;28;20139;-68
2021/07/08 02:03:18;;;;;;;13.68;9.50;;;;;;;;;;5064237;28;20407;-68
2021/07/08 02:05:44;;;;;;;15.80;9.77;;;;;;;;;;5062875;28;20037;-68
2021/07/08 02:08:11;;;;;;;18.52;11.48;;;;;;;;;;5063993;28;20048;-68
2021/07/08 02:10:37;;;;;;;16.67;9.50;;;;;;;;;;5064443;28;20045;-68
2021/07/08 02:13:04;;;;;;;12.60;8.48;;;;;;;;;;5063784;28;20036;-68
2021/07/08 02:15:30;;;;;;;11.65;9.77;;;;;;;;;;5060808;28;20041;-68
2021/07/08 02:17:56;;;;;;;14.32;9.95;;;;;;;;;;5061914;28;20040;-68
2021/07/08 02:20:22;;;;;;;15.23;9.82;;;;;;;;;;5062511;28;20572;-68
2021/07/08 02:22:49;;;;;;;16.77;10.98;;;;;;;;;;5062597;28;20053;-68
2021/07/08 02:25:15;;;;;;;14.27;10.02;;;;;;;;;;5064450;28;20059;-68
2021/07/08 02:27:42;;;;;;;14.45;10.13;;;;;;;;;;5064153;28;20389;-68
2021/07/08 02:30:10;;;;;;;18.00;11.00;;;;;;;;;;5064639;28;20041;-68
2021/07/08 02:32:37;;;;;;;17.10;10.13;;;;;;;;;;5063617;28;20123;-67
2021/07/08 02:35:05;;;;;;;17.00;11.15;;;;;;;;;;5060850;28;20522;-68
2021/07/08 02:37:31;;;;;;;16.20;10.80;;;;;;;;;;5062784;28;20037;-68
2021/07/08 02:39:57;;;;;;;14.48;10.07;;;;;;;;;;5060638;28;20052;-68
2021/07/08 02:42:23;;;;;;;19.15;10.40;;;;;;;;;;5061980;28;20033;-68
2021/07/08 02:44:50;;;;;;;15.10;9.98;;;;;;;;;;5058498;28;20075;-68
2021/07/08 02:47:16;;;;;;;14.45;10.43;;;;;;;;;;5064780;28;20051;-68
2021/07/08 02:49:43;;;;;;;17.10;10.73;;;;;;;;;;5057612;28;20041;-68
2021/07/08 02:52:09;;;;;;;14.15;9.32;;;;;;;;;;5060390;28;20067;-68
2021/07/08 02:54:36;;;;;;;14.07;10.15;;;;;;;;;;5062149;28;20093;-68
2021/07/08 02:57:02;;;;;;;14.57;9.32;;;;;;;;;;5053310;28;20249;-68
2021/07/08 02:59:28;;;;;;;18.25;10.38;;;;;;;;;;5055527;28;20490;-68
2021/07/08 03:01:55;;;;;;;19.00;9.85;;;;;;;;;;5056298;28;20040;-68
2021/07/08 03:04:21;;;;;;;17.17;10.15;;;;;;;;;;5060134;28;20543;-68
2021/07/08 03:06:47;;;;;;;17.58;11.48;;;;;;;;;;5061270;28;20036;-68
2021/07/08 03:09:14;;;;;;;19.67;11.52;;;;;;;;;;5059698;28;20165;-68
2021/07/08 03:11:40;;;;;;;17.75;11.23;;;;;;;;;;5058996;28;20539;-68
2021/07/08 03:14:06;;;;;;;14.73;10.80;;;;;;;;;;5059497;28;20143;-68
2021/07/08 03:16:32;;;;;;;21.15;10.35;;;;;;;;;;5057736;28;20127;-68
2021/07/08 03:19:12;;;;;;;17.92;10.43;;;;;;;;;;5057560;28;20055;-68
2021/07/08 03:21:38;;;;;;;21.42;10.60;;;;;;;;;;5062756;28;20048;-68
2021/07/08 03:24:05;;;;;;;17.00;9.95;;;;;;;;;;5063201;28;20037;-68
2021/07/08 03:26:32;;;;;;;16.58;11.02;;;;;;;;;;5060819;28;20087;-68
2021/07/08 03:28:58;;;;;;;15.55;10.73;;;;;;;;;;5062110;28;20086;-68
2021/07/08 03:31:24;;;;;;;17.00;11.50;;;;;;;;;;5062379;28;20211;-68
2021/07/08 03:33:51;;;;;;;30.25;13.55;;;;;;;;;;5061153;28;20041;-68
2021/07/08 03:36:17;;;;;;;17.67;11.80;;;;;;;;;;5055378;28;20481;-68
2021/07/08 03:38:43;;;;;;;20.20;11.07;;;;;;;;;;5036812;28;20113;-68
2021/07/08 03:41:09;;;;;;;16.60;11.48;;;;;;;;;;5061079;28;20059;-68
2021/07/08 03:43:36;;;;;;;13.43;10.63;;;;;;;;;;5063088;28;20226;-68
2021/07/08 03:46:02;;;;;;;15.57;10.73;;;;;;;;;;5059385;28;20128;-68
2021/07/08 03:48:28;;;;;;;20.58;13.05;;;;;;;;;;5060952;28;20045;-68
2021/07/08 03:50:54;;;;;;;18.08;11.10;;;;;;;;;;5060907;28;20377;-68
2021/07/08 03:53:20;;;;;;;19.02;11.82;;;;;;;;;;5061739;28;20044;-68
2021/07/08 03:55:47;;;;;;;16.48;11.00;;;;;;;;;;5056807;28;20120;-68
2021/07/08 03:58:13;;;;;;;17.33;13.00;;;;;;;;;;5055467;28;20140;-68
2021/07/08 04:00:40;;;;;;;17.50;12.02;;;;;;;;;;5062879;28;20048;-68
2021/07/08 04:03:08;;;;;;;22.65;12.50;;;;;;;;;;5060762;28;21242;-68
2021/07/08 04:05:36;;;;;;;19.02;11.98;;;;;;;;;;5061050;28;20463;-68
2021/07/08 04:08:03;;;;;;;15.93;13.00;;;;;;;;;;5062030;28;20085;-68
2021/07/08 04:10:30;;;;;;;20.15;11.75;;;;;;;;;;5062540;28;20127;-68
2021/07/08 04:12:57;;;;;;;20.67;11.77;;;;;;;;;;5064125;28;20484;-68
2021/07/08 04:15:23;;;;;;;16.75;11.50;;;;;;;;;;5061801;28;20185;-68
2021/07/08 04:17:49;;;;;;;15.85;11.25;;;;;;;;;;5063552;28;20504;-68
2021/07/08 04:20:17;;;;;;;15.60;11.50;;;;;;;;;;5063955;28;20072;-68
2021/07/08 04:22:43;;;;;;;14.85;11.02;;;;;;;;;;5063733;28;20041;-68
2021/07/08 04:25:10;;;;;;;18.38;11.35;;;;;;;;;;5064226;28;20068;-68
2021/07/08 04:27:39;;;;;;;17.95;11.98;;;;;;;;;;5058317;28;20036;-68
2021/07/08 04:30:06;;;;;;;17.85;11.52;;;;;;;;;;5059168;28;20044;-68
2021/07/08 04:32:32;;;;;;;22.60;12.32;;;;;;;;;;5064718;28;20498;-68
2021/07/08 04:34:59;;;;;;;16.48;11.25;;;;;;;;;;5059739;28;20051;-68
2021/07/08 04:37:25;;;;;;;19.73;11.00;;;;;;;;;;5056380;28;20684;-68
2021/07/08 04:39:52;;;;;;;19.75;11.80;;;;;;;;;;5056932;28;20139;-68
2021/07/08 04:42:18;;;;;;;16.02;11.45;;;;;;;;;;5060148;28;20418;-68
2021/07/08 04:44:45;;;;;;;17.33;12.05;;;;;;;;;;5061217;28;20094;-68
2021/07/08 04:47:12;;;;;;;18.52;11.65;;;;;;;;;;5059719;28;20051;-68
2021/07/08 04:49:39;;;;;;;17.25;11.85;;;;;;;;;;5064360;28;20041;-68
2021/07/08 04:52:07;;;;;;;22.83;12.20;;;;;;;;;;5050894;28;20496;-68
2021/07/08 04:54:34;;;;;;;17.88;11.85;;;;;;;;;;5068412;28;20044;-68
2021/07/08 04:57:00;;;;;;;17.33;10.90;;;;;;;;;;5068760;28;20067;-68
2021/07/08 04:59:26;;;;;;;18.02;11.90;;;;;;;;;;5065497;28;20044;-68
2021/07/08 05:01:52;;;;;;;14.45;10.50;;;;;;;;;;5061829;28;20101;-68
2021/07/08 05:04:19;;;;;;;15.32;11.07;;;;;;;;;;5064711;28;20048;-68
2021/07/08 05:06:45;;;;;;;12.85;10.38;;;;;;;;;;5068928;28;20053;-68
2021/07/08 05:09:12;;;;;;;18.23;12.27;;;;;;;;;;5069884;28;20081;-68
2021/07/08 05:11:38;;;;;;;15.05;11.68;;;;;;;;;;5061308;28;20048;-68
2021/07/08 05:14:04;;;;;;;15.30;11.70;;;;;;;;;;5063593;28;20141;-68
2021/07/08 05:16:30;;;;;;;18.83;12.68;;;;;;;;;;5062786;28;20040;-68
2021/07/08 05:18:56;;;;;;;18.50;11.70;;;;;;;;;;5058710;28;20049;-68
2021/07/08 05:21:23;;;;;;;16.33;12.18;;;;;;;;;;5060803;28;20047;-68
2021/07/08 05:23:52;;;;;;;16.40;11.68;;;;;;;;;;5046021;28;20041;-68
2021/07/08 05:26:18;;;;;;;19.08;12.20;;;;;;;;;;5062172;28;20040;-68
2021/07/08 05:28:45;;;;;;;15.38;11.20;;;;;;;;;;5062482;28;20045;-68
2021/07/08 05:31:11;;;;;;;17.50;11.43;;;;;;;;;;5064397;28;20102;-68
2021/07/08 05:33:37;;;;;;;16.17;10.75;;;;;;;;;;5061776;28;20098;-68
2021/07/08 05:36:03;;;;;;;15.88;10.77;;;;;;;;;;5063491;28;20461;-68
2021/07/08 05:38:29;;;;;;;21.13;11.63;;;;;;;;;;5046651;28;20109;-68
2021/07/08 05:40:55;;;;;;;18.08;12.00;;;;;;;;;;5062618;28;20121;-68
2021/07/08 05:43:22;;;;;;;15.27;11.63;;;;;;;;;;5062158;28;20059;-68
2021/07/08 05:45:48;;;;;;;19.75;12.20;;;;;;;;;;5064303;28;20089;-69
2021/07/08 05:48:14;;;;;;;19.48;12.23;;;;;;;;;;5062236;28;20051;-68
2021/07/08 05:50:40;;;;;;;18.48;11.55;;;;;;;;;;5061625;28;20460;-68
2021/07/08 05:53:06;;;;;;;18.92;11.43;;;;;;;;;;5065825;28;20083;-68
2021/07/08 05:55:33;;;;;;;19.35;10.35;;;;;;;;;;5066806;28;20068;-68
2021/07/08 05:57:59;;;;;;;21.17;10.75;;;;;;;;;;5062979;28;20083;-68
2021/07/08 06:00:26;;;;;;;16.00;9.85;;;;;;;;;;5064365;28;20136;-68
2021/07/08 06:02:52;;;;;;;17.13;10.02;;;;;;;;;;5064425;28;20041;-68
2021/07/08 06:05:18;;;;;;;16.38;8.85;;;;;;;;;;5066167;28;20996;-68
2021/07/08 06:07:45;;;;;;;13.32;8.80;;;;;;;;;;5065155;28;20473;-68
2021/07/08 06:10:12;;;;;;;14.48;8.30;;;;;;;;;;5065013;28;21555;-68
2021/07/08 06:12:40;;;;;;;14.40;8.10;;;;;;;;;;5065830;28;20047;-68
2021/07/08 06:15:06;;;;;;;17.90;7.88;;;;;;;;;;5066500;28;20124;-68
2021/07/08 06:17:32;;;;;;;13.15;8.57;;;;;;;;;;5059327;28;20036;-68
2021/07/08 06:19:58;;;;;;;14.00;8.15;;;;;;;;;;5059931;28;20047;-68
2021/07/08 06:22:25;;;;;;;16.75;7.75;;;;;;;;;;5060339;28;20099;-68
2021/07/08 06:24:51;;;;;;;12.98;7.78;;;;;;;;;;5066154;28;20054;-68
2021/07/08 06:27:17;;;;;;;11.35;7.65;;;;;;;;;;5058671;28;20507;-68
2021/07/08 06:29:43;;;;;;;13.18;7.25;;;;;;;;;;5061216;28;20127;-68
2021/07/08 06:32:09;;;;;;;14.13;8.10;;;;;;;;;;5067394;28;20067;-68
2021/07/08 06:34:36;;;;;;;17.38;8.38;;;;;;;;;;5067273;28;20040;-68
2021/07/08 06:37:02;;;;;;;12.38;6.25;;;;;;;;;;5065348;28;20081;-68
2021/07/08 06:39:28;;;;;;;15.45;6.35;;;;;;;;;;5066781;28;20131;-69
2021/07/08 06:41:55;;;;;;;11.90;5.88;;;;;;;;;;5065043;28;20109;-68
2021/07/08 06:44:21;;;;;;;9.88;4.95;;;;;;;;;;5060469;28;20052;-68
2021/07/08 06:46:51;;;;;;;12.15;5.15;;;;;;;;;;5061961;28;20536;-68
2021/07/08 06:49:17;;;;;;;13.07;6.63;;;;;;;;;;5058333;28;20041;-68
2021/07/08 06:51:43;;;;;;;10.50;5.78;;;;;;;;;;5064000;28;20053;-68
2021/07/08 06:54:09;;;;;;;9.50;5.03;;;;;;;;;;5043143;28;20045;-68
2021/07/08 06:56:35;;;;;;;8.02;4.53;;;;;;;;;;5048025;28;20055;-68
2021/07/08 06:59:02;;;;;;;8.60;4.55;;;;;;;;;;5054861;28;20067;-68
2021/07/08 07:01:28;;;;;;;10.40;4.82;;;;;;;;;;5048159;28;20087;-68
2021/07/08 07:03:54;;;;;;;10.85;4.57;;;;;;;;;;5050261;28;20049;-68
2021/07/08 07:06:20;;;;;;;8.88;3.83;;;;;;;;;;5051313;28;20081;-68
2021/07/08 07:08:47;;;;;;;5.47;3.30;;;;;;;;;;5023904;28;20056;-68
2021/07/08 07:11:13;;;;;;;9.18;3.22;;;;;;;;;;5049991;28;20179;-68
2021/07/08 07:13:39;;;;;;;6.60;3.80;;;;;;;;;;5049249;28;20080;-68
2021/07/08 07:16:06;;;;;;;7.97;4.00;;;;;;;;;;5030219;28;20045;-68
2021/07/08 07:18:32;;;;;;;10.65;4.43;;;;;;;;;;5054336;28;20089;-68
2021/07/08 07:20:58;;;;;;;10.52;4.15;;;;;;;;;;5046570;28;20036;-68
2021/07/08 07:23:24;;;;;;;7.65;3.50;;;;;;;;;;5045846;28;20080;-68
2021/07/08 07:25:51;;;;;;;8.68;4.30;;;;;;;;;;5045821;28;20546;-68
2021/07/08 07:28:17;;;;;;;8.98;5.18;;;;;;;;;;5045319;28;20048;-68
2021/07/08 07:30:43;;;;;;;7.97;4.47;;;;;;;;;;5053100;28;20132;-69
2021/07/08 07:33:09;;;;;;;7.80;4.25;;;;;;;;;;5046112;28;20072;-68
2021/07/08 07:35:36;;;;;;;7.40;4.38;;;;;;;;;;5047290;28;20102;-69
2021/07/08 07:38:05;;;;;;;8.48;4.63;;;;;;;;;;5043356;28;20453;-69
2021/07/08 07:40:31;;;;;;;11.35;5.05;;;;;;;;;;5044699;28;20041;-68
2021/07/08 07:42:58;;;;;;;9.15;4.88;;;;;;;;;;5045496;28;20086;-68
2021/07/08 07:45:24;;;;;;;10.38;5.15;;;;;;;;;;5045449;28;20079;-68
2021/07/08 07:47:52;;;;;;;11.52;5.00;;;;;;;;;;5052338;28;20114;-68
2021/07/08 07:50:19;;;;;;;13.18;5.57;;;;;;;;;;5058120;28;20512;-68
2021/07/08 07:52:45;;;;;;;9.23;4.93;;;;;;;;;;5051463;28;20140;-68
2021/07/08 07:55:13;;;;;;;7.57;3.28;;;;;;;;;;5059368;28;20055;-68
2021/07/08 07:57:41;;;;;;;6.57;3.40;;;;;;;;;;5060298;28;20254;-69
2021/07/08 08:00:07;;;;;;;5.78;2.90;;;;;;;;;;5064292;28;20384;-68
2021/07/08 08:02:33;;;;;;;8.63;4.13;;;;;;;;;;5061903;28;20067;-68
2021/07/08 08:10:15;;;;;;;6.65;2.88;;;;;;;;;;5061076;28;20048;-69
2021/07/08 08:12:42;;;;;;;7.68;3.65;;;;;;;;;;5057332;28;20056;-69
2021/07/08 08:15:10;;;;;;;6.22;3.20;;;;;;;;;;5059765;28;20075;-68
2021/07/08 08:17:36;;;;;;;7.32;3.72;;;;;;;;;;5056092;28;20085;-69
2021/07/08 08:20:04;;;;;;;8.27;3.92;;;;;;;;;;5065492;28;20445;-69
2021/07/08 08:22:30;;;;;;;9.30;4.50;;;;;;;;;;5058486;28;20066;-69
2021/07/08 08:24:56;;;;;;;7.75;5.00;;;;;;;;;;5065699;28;20064;-68
2021/07/08 08:27:22;;;;;;;6.72;4.72;;;;;;;;;;5052020;28;20519;-68
2021/07/08 08:29:49;;;;;;;7.15;4.38;;;;;;;;;;5065530;28;20071;-68
2021/07/08 08:32:15;;;;;;;8.45;4.45;;;;;;;;;;5061953;28;20068;-68
2021/07/08 08:34:41;;;;;;;6.85;3.88;;;;;;;;;;5067274;28;20048;-68
2021/07/08 08:37:07;;;;;;;7.25;4.53;;;;;;;;;;5063350;28;20124;-69
2021/07/08 08:39:34;;;;;;;7.07;4.10;;;;;;;;;;5064203;28;20095;-69
2021/07/08 08:42:00;;;;;;;6.05;3.00;;;;;;;;;;5062314;28;20496;-68
2021/07/08 08:44:26;;;;;;;7.90;3.67;;;;;;;;;;5057801;28;20072;-68
2021/07/08 08:46:52;;;;;;;10.15;3.97;;;;;;;;;;5068808;28;20071;-69
2021/07/08 08:49:19;;;;;;;9.15;3.97;;;;;;;;;;5068163;28;20049;-69
2021/07/08 08:51:45;;;;;;;11.18;3.85;;;;;;;;;;5062853;28;20386;-68
2021/07/08 08:54:12;;;;;;;9.90;4.57;;;;;;;;;;5068946;28;20158;-69
2021/07/08 08:56:38;;;;;;;6.07;4.22;;;;;;;;;;5060712;28;20460;-69
2021/07/08 08:59:04;;;;;;;8.38;4.60;;;;;;;;;;5062682;28;20080;-69
2021/07/08 09:01:31;;;;;;;8.70;4.43;;;;;;;;;;5038437;28;20037;-68
2021/07/08 09:03:57;;;;;;;8.30;3.97;;;;;;;;;;5063595;28;20111;-69
2021/07/08 09:06:24;;;;;;;6.10;3.58;;;;;;;;;;5063126;28;20484;-68
2021/07/08 09:08:50;;;;;;;5.88;3.28;;;;;;;;;;5057224;28;20040;-69
2021/07/08 09:11:21;;;;;;;6.85;3.40;;;;;;;;;;5040550;28;20033;-69
2021/07/08 09:13:50;;;;;;;6.82;3.10;;;;;;;;;;5062493;28;20457;-68
2021/07/08 09:16:18;;;;;;;7.25;2.78;;;;;;;;;;5054572;28;20064;-69
2021/07/08 09:18:55;;;;;;;5.22;2.25;;;;;;;;;;5061683;28;20052;-69
2021/07/08 09:21:21;;;;;;;6.68;3.58;;;;;;;;;;5056267;28;20041;-69
2021/07/08 09:24:03;;;;;;;5.38;3.00;;;;;;;;;;5061298;28;20044;-69
2021/07/08 09:26:29;;;;;;;6.47;2.97;;;;;;;;;;5058592;28;20123;-69
2021/07/08 09:29:09;;;;;;;8.15;3.38;;;;;;;;;;5040849;28;20842;-69
2021/07/08 09:31:37;;;;;;;5.55;2.55;;;;;;;;;;5055972;28;20149;-69
2021/07/08 09:34:13;;;;;;;7.25;3.47;;;;;;;;;;5063086;28;20040;-69
2021/07/08 09:36:39;;;;;;;6.93;3.30;;;;;;;;;;5052619;28;20052;-69
2021/07/08 09:39:07;;;;;;;6.93;3.00;;;;;;;;;;5058679;28;20079;-69
2021/07/08 09:41:33;;;;;;;7.55;3.38;;;;;;;;;;5052681;28;20369;-68
2021/07/08 09:43:59;;;;;;;6.32;3.03;;;;;;;;;;5050331;28;20033;-69
2021/07/08 09:46:38;;;;;;;5.82;2.63;;;;;;;;;;5050547;28;20094;-69
2021/07/08 09:49:04;;;;;;;6.05;2.95;;;;;;;;;;5051070;28;20040;-69
2021/07/08 09:51:31;;;;;;;6.65;3.20;;;;;;;;;;5050496;28;20072;-69
2021/07/08 09:54:07;;;;;;;5.43;2.83;;;;;;;;;;5050693;28;20148;-69
2021/07/08 09:56:45;;;;;;;6.95;2.65;;;;;;;;;;5051299;28;20067;-69
2021/07/08 09:59:12;;;;;;;4.05;2.28;;;;;;;;;;5044657;28;20052;-69
2021/07/08 10:01:38;;;;;;;6.20;2.13;;;;;;;;;;5062588;28;20048;-69
2021/07/08 10:04:05;;;;;;;3.70;1.80;;;;;;;;;;5060576;28;20748;-69
2021/07/08 10:06:32;;;;;;;3.40;1.80;;;;;;;;;;5070294;28;20044;-69
2021/07/08 10:08:59;;;;;;;4.63;2.05;;;;;;;;;;5067921;28;20045;-69
2021/07/08 10:11:27;;;;;;;6.22;2.67;;;;;;;;;;5071436;28;20063;-69
2021/07/08 10:13:53;;;;;;;3.13;1.67;;;;;;;;;;5071484;28;20056;-68
2021/07/08 10:16:20;;;;;;;5.30;2.05;;;;;;;;;;5053805;28;20399;-69
2021/07/08 10:18:48;;;;;;;2.67;1.45;;;;;;;;;;5070753;28;20040;-69
2021/07/08 10:21:17;;;;;;;6.80;1.85;;;;;;;;;;5071462;28;20151;-69
2021/07/08 10:23:44;;;;;;;3.75;1.83;;;;;;;;;;5071517;28;20044;-69
2021/07/08 10:26:10;;;;;;;5.20;1.70;;;;;;;;;;5070852;28;20048;-69
2021/07/08 10:28:39;;;;;;;4.05;1.98;;;;;;;;;;5071476;28;20049;-69
2021/07/08 10:31:06;;;;;;;3.35;1.65;;;;;;;;;;5071303;28;20468;-69
2021/07/08 10:33:32;;;;;;;4.88;2.10;;;;;;;;;;5070537;28;20051;-69
2021/07/08 10:35:59;;;;;;;4.75;2.20;;;;;;;;;;5071171;28;20064;-69
2021/07/08 10:38:36;;;;;;;3.08;1.63;;;;;;;;;;5071296;28;20051;-69
2021/07/08 10:41:22;;;;;;;3.42;1.73;;;;;;;;;;5070589;28;20094;-68
2021/07/08 10:43:48;;;;;;;3.67;1.73;;;;;;;;;;5070741;28;20040;-69
2021/07/08 10:46:15;;;;;;;4.05;1.48;;;;;;;;;;5070901;28;20044;-69
2021/07/08 10:48:43;;;;;;;5.35;2.00;;;;;;;;;;5070843;28;20476;-69
2021/07/08 10:51:10;;;;;;;4.93;2.35;;;;;;;;;;5071436;28;20040;-69
2021/07/08 10:53:38;;;;;;;5.30;2.40;;;;;;;;;;5070642;28;20040;-70
2021/07/08 10:56:07;;;;;;;5.78;1.63;;;;;;;;;;5071249;28;20826;-75
2021/07/08 10:58:36;;;;;;;4.38;1.70;;;;;;;;;;5052560;28;20161;-70
2021/07/08 11:01:03;;;;;;;4.55;1.92;;;;;;;;;;5070416;28;20041;-69
2021/07/08 11:03:38;;;;;;;5.75;2.33;;;;;;;;;;5071071;28;20068;-74
2021/07/08 11:06:10;;;;;;;4.28;2.00;;;;;;;;;;5058263;28;20554;-77
2021/07/08 11:08:43;;;;;;;3.80;1.70;;;;;;;;;;5070796;28;20127;-68
2021/07/08 11:11:09;;;;;;;4.65;2.05;;;;;;;;;;5057130;28;20119;-68
2021/07/08 11:13:37;;;;;;;4.50;1.80;;;;;;;;;;5070543;28;20488;-68
2021/07/08 11:16:03;;;;;;;7.13;2.10;;;;;;;;;;5070056;28;20096;-68
2021/07/08 11:18:30;;;;;;;5.32;2.03;;;;;;;;;;5070770;28;20535;-68
2021/07/08 11:20:56;;;;;;;4.68;1.90;;;;;;;;;;5070578;28;20078;-68
2021/07/08 11:23:38;;;;;;;4.40;2.00;;;;;;;;;;5069639;28;20055;-68
2021/07/08 11:26:05;;;;;;;6.65;2.15;;;;;;;;;;5070688;28;20037;-68
2021/07/08 11:28:32;;;;;;;5.40;1.75;;;;;;;;;;5069683;28;20044;-68
2021/07/08 11:31:01;;;;;;;7.18;2.03;;;;;;;;;;5070389;28;20446;-68
2021/07/08 11:33:28;;;;;;;4.57;2.00;;;;;;;;;;5052206;28;20044;-68
2021/07/08 11:35:57;;;;;;;4.25;1.90;;;;;;;;;;5069550;28;20094;-68
2021/07/08 11:38:25;;;;;;;8.13;2.17;;;;;;;;;;5070088;28;20424;-67
2021/07/08 11:40:52;;;;;;;6.68;2.30;;;;;;;;;;5070407;28;20380;-67
2021/07/08 11:43:32;;;;;;;5.03;2.35;;;;;;;;;;5069650;28;20046;-67
2021/07/08 11:46:08;;;;;;;6.70;1.95;;;;;;;;;;5070578;28;20032;-67
2021/07/08 11:48:36;;;;;;;4.32;1.55;;;;;;;;;;5070060;28;20253;-67
2021/07/08 11:51:02;;;;;;;3.47;1.35;;;;;;;;;;5069758;28;20398;-67
2021/07/08 11:53:29;;;;;;;4.05;1.90;;;;;;;;;;5070341;28;20041;-67
2021/07/08 11:55:56;;;;;;;3.70;1.77;;;;;;;;;;5071521;28;20131;-67
2021/07/08 11:58:25;;;;;;;5.18;1.83;;;;;;;;;;5075929;28;20484;-67
2021/07/08 12:00:52;;;;;;;5.15;2.03;;;;;;;;;;5076698;28;20094;-67
2021/07/08 12:03:26;;;;;;;5.22;2.60;;;;;;;;;;5076478;28;20131;-72
2021/07/08 12:05:57;;;;;;;4.45;2.25;;;;;;;;;;5076483;28;20041;-72
2021/07/08 12:08:29;;;;;;;6.43;2.30;;;;;;;;;;5076687;28;20048;-72
2021/07/08 12:10:57;;;;;;;6.97;2.47;;;;;;;;;;5076061;28;20067;-72
2021/07/08 12:13:23;;;;;;;6.78;2.92;;;;;;;;;;5076564;28;20045;-72
2021/07/08 12:15:50;;;;;;;5.70;2.83;;;;;;;;;;5076865;28;20049;-72
2021/07/08 12:18:16;;;;;;;4.97;2.65;;;;;;;;;;5076198;28;20040;-72
2021/07/08 12:20:47;;;;;;;4.50;2.70;;;;;;;;;;5076616;28;20433;-72
2021/07/08 12:23:13;;;;;;;5.45;2.58;;;;;;;;;;5076684;28;20067;-72
2021/07/08 12:25:39;;;;;;;6.43;3.00;;;;;;;;;;5076071;28;20052;-73
2021/07/08 12:28:05;;;;;;;6.22;3.70;;;;;;;;;;5076424;28;20507;-72
2021/07/08 12:30:32;;;;;;;6.28;3.80;;;;;;;;;;5076517;28;20052;-72
2021/07/08 12:33:05;;;;;;;6.55;3.10;;;;;;;;;;5075918;28;20116;-72
2021/07/08 12:35:38;;;;;;;3.75;2.85;;;;;;;;;;5064134;28;20052;-73
2021/07/08 12:38:04;;;;;;;6.68;3.38;;;;;;;;;;5076506;28;20090;-72
2021/07/08 12:40:30;;;;;;;4.90;2.50;;;;;;;;;;5057997;28;20041;-72
2021/07/08 12:42:58;;;;;;;5.93;2.67;;;;;;;;;;5076395;28;20048;-72
2021/07/08 12:45:24;;;;;;;5.00;2.63;;;;;;;;;;5076335;28;20131;-72
2021/07/08 12:47:53;;;;;;;3.83;1.90;;;;;;;;;;5075391;28;20382;-72
2021/07/08 12:50:26;;;;;;;4.00;1.90;;;;;;;;;;5076113;28;20070;-72
2021/07/08 12:52:55;;;;;;;5.97;2.40;;;;;;;;;;5075460;28;20747;-72
2021/07/08 12:55:40;;;;;;;6.88;2.00;;;;;;;;;;5057879;28;20233;-72
2021/07/08 12:58:07;;;;;;;5.60;2.20;;;;;;;;;;5076059;28;20110;-72
2021/07/08 13:00:35;;;;;;;4.70;2.05;;;;;;;;;;5075083;28;20049;-72
2021/07/08 13:03:02;;;;;;;4.93;2.70;;;;;;;;;;5076045;28;20037;-72
2021/07/08 13:05:36;;;;;;;4.18;2.22;;;;;;;;;;5075727;28;20453;-77
2021/07/08 13:08:06;;;;;;;4.40;2.30;;;;;;;;;;5054635;28;20040;-73
2021/07/08 13:10:34;;;;;;;7.13;2.38;;;;;;;;;;5072902;28;20040;-75
2021/07/08 13:13:00;;;;;;;5.22;2.10;;;;;;;;;;5072650;28;20123;-73
2021/07/08 13:15:27;;;;;;;5.90;2.05;;;;;;;;;;5071908;28;20051;-74
2021/07/08 13:18:03;;;;;;;3.83;1.90;;;;;;;;;;5072272;28;20337;-73
2021/07/08 13:20:29;;;;;;;5.13;2.17;;;;;;;;;;5072483;28;20044;-74
2021/07/08 13:22:56;;;;;;;7.20;2.38;;;;;;;;;;5071992;28;20048;-73
2021/07/08 13:25:24;;;;;;;6.57;2.40;;;;;;;;;;5072616;28;20048;-73
2021/07/08 13:27:52;;;;;;;5.55;2.20;;;;;;;;;;5071768;28;20051;-73
2021/07/08 13:30:25;;;;;;;5.65;2.83;;;;;;;;;;5072535;28;20040;-73
2021/07/08 13:33:04;;;;;;;4.85;2.30;;;;;;;;;;5072286;28;20047;-73
2021/07/08 13:35:49;;;;;;;4.75;2.53;;;;;;;;;;5058444;28;20045;-73
2021/07/08 13:38:15;;;;;;;4.50;2.00;;;;;;;;;;5072092;28;20083;-73
2021/07/08 13:40:57;;;;;;;3.78;1.90;;;;;;;;;;5072226;28;20056;-73
2021/07/08 13:43:31;;;;;;;5.03;1.90;;;;;;;;;;5071142;28;20510;-73
2021/07/08 13:46:11;;;;;;;4.43;1.98;;;;;;;;;;5072083;28;20436;-73
2021/07/08 13:48:37;;;;;;;4.57;2.05;;;;;;;;;;5071924;28;20505;-73
2021/07/08 13:51:05;;;;;;;7.68;3.03;;;;;;;;;;5071423;28;20037;-73
2021/07/08 13:53:31;;;;;;;9.07;3.22;;;;;;;;;;5071610;28;20052;-73
2021/07/08 13:55:58;;;;;;;6.30;3.63;;;;;;;;;;5053513;28;20036;-75
2021/07/08 13:58:24;;;;;;;7.57;3.75;;;;;;;;;;5053813;28;20053;-75
2021/07/08 14:00:50;;;;;;;6.75;3.70;;;;;;;;;;5071690;28;20044;-75
2021/07/08 14:03:17;;;;;;;8.85;3.40;;;;;;;;;;5071200;28;20135;-75
2021/07/08 14:05:43;;;;;;;7.95;3.83;;;;;;;;;;5071599;28;20037;-75
2021/07/08 14:08:09;;;;;;;9.25;4.18;;;;;;;;;;5071514;28;20056;-75
2021/07/08 14:10:36;;;;;;;6.95;4.47;;;;;;;;;;5070814;28;20226;-75
2021/07/08 14:13:03;;;;;;;8.88;5.20;;;;;;;;;;5071568;28;20119;-75
2021/07/08 14:15:30;;;;;;;7.20;5.43;;;;;;;;;;5071239;28;20475;-75
2021/07/08 14:17:56;;;;;;;9.95;4.97;;;;;;;;;;5070530;28;20183;-75
2021/07/08 14:20:23;;;;;;;8.65;4.65;;;;;;;;;;5071010;28;20053;-75
2021/07/08 14:22:49;;;;;;;9.50;4.80;;;;;;;;;;5053087;28;20049;-75
2021/07/08 14:25:16;;;;;;;9.27;5.50;;;;;;;;;;5070848;28;20072;-75
2021/07/08 14:27:43;;;;;;;7.53;4.68;;;;;;;;;;5071453;28;20058;-75
2021/07/08 14:30:10;;;;;;;11.13;5.55;;;;;;;;;;5071065;28;20045;-75
2021/07/08 14:32:38;;;;;;;10.13;5.32;;;;;;;;;;5070458;28;20048;-75
2021/07/08 14:35:05;;;;;;;7.50;5.13;;;;;;;;;;5070862;28;20045;-75
2021/07/08 14:37:31;;;;;;;8.55;5.30;;;;;;;;;;5071021;28;20049;-75
2021/07/08 14:39:57;;;;;;;8.30;5.68;;;;;;;;;;5070325;28;20059;-75